createdAt,value
2022-09-15T00:00:16.628Z,96638.91
2022-09-15T00:03:19.833Z,96650.81
2022-09-15T00:06:21.889Z,96649.16
2022-09-15T00:09:23.934Z,96646.00
2022-09-15T00:12:27.148Z,96651.84
2022-09-15T00:15:29.156Z,96647.53
2022-09-15T00:18:31.968Z,96653.78
2022-09-15T00:21:36.259Z,96653.53
2022-09-15T00:24:38.176Z,96649.16
2022-09-15T00:27:40.856Z,96647.44
2022-09-15T00:30:49.453Z,96655.19
2022-09-15T00:33:54.418Z,96651.47
2022-09-15T00:36:56.453Z,96662.50
2022-09-15T00:39:58.516Z,96657.53
2022-09-15T00:43:00.517Z,96654.22
2022-09-15T00:46:02.498Z,96660.56
2022-09-15T00:49:14.698Z,96664.91
2022-09-15T00:52:42.726Z,96666.34
2022-09-15T00:55:49.088Z,96662.44
2022-09-15T00:58:57.654Z,96660.16
2022-09-15T01:02:08.841Z,96652.50
2022-09-15T01:05:14.483Z,96643.69
2022-09-15T01:08:42.434Z,96652.88
2022-09-15T01:11:45.086Z,96663.75
2022-09-15T01:14:47.035Z,96670.09
2022-09-15T01:21:35.355Z,96648.69
2022-09-15T01:24:55.877Z,96642.53
2022-09-15T01:28:45.294Z,96658.91
2022-09-15T01:32:13.547Z,96674.09
2022-09-15T01:35:25.332Z,96665.44
2022-09-15T01:38:48.824Z,96653.94
2022-09-15T01:41:57.207Z,96653.13
2022-09-15T01:45:05.476Z,96648.97
2022-09-15T01:48:09.111Z,96648.16
2022-09-15T01:51:11.398Z,96633.19
2022-09-15T01:54:15.709Z,96623.16
2022-09-15T01:57:21.599Z,96629.50
2022-09-15T02:00:23.540Z,96628.25
2022-09-15T02:03:34.001Z,96619.78
2022-09-15T02:06:45.651Z,96612.16
2022-09-15T02:10:01.607Z,96609.91
2022-09-15T02:13:17.251Z,96612.28
2022-09-15T02:16:22.779Z,96614.50
2022-09-15T02:19:41.257Z,96607.72
2022-09-15T02:22:55.847Z,96611.53
2022-09-15T02:26:05.510Z,96600.88
2022-09-15T02:29:13.321Z,96593.66
2022-09-15T02:32:19.398Z,96599.69
2022-09-15T02:35:22.423Z,96609.09
2022-09-15T02:38:28.818Z,96609.91
2022-09-15T02:41:31.397Z,96615.25
2022-09-15T02:44:33.706Z,96610.75
2022-09-15T02:47:35.686Z,96613.78
2022-09-15T02:50:38.710Z,96611.09
2022-09-15T02:53:41.337Z,96616.81
2022-09-15T02:56:43.737Z,96620.47
2022-09-15T03:00:04.148Z,96616.97
2022-09-15T03:03:06.135Z,96616.97
2022-09-15T03:06:17.287Z,96614.53
2022-09-15T03:09:19.309Z,96623.06
2022-09-15T03:12:21.284Z,96616.25
2022-09-15T03:15:24.805Z,96620.41
2022-09-15T03:18:26.751Z,96619.56
2022-09-15T03:21:29.855Z,96614.06
2022-09-15T03:24:31.776Z,96612.22
2022-09-15T03:27:34.981Z,96612.22
2022-09-15T03:30:36.980Z,96611.94
2022-09-15T03:33:39.094Z,96617.44
2022-09-15T03:36:41.557Z,96615.81
2022-09-15T03:39:43.631Z,96613.53
2022-09-15T03:42:45.569Z,96626.53
2022-09-15T03:45:47.634Z,96616.09
2022-09-15T03:48:49.638Z,96621.44
2022-09-15T03:51:51.911Z,96614.63
2022-09-15T03:54:53.848Z,96616.63
2022-09-15T03:57:55.991Z,96618.66
2022-09-15T04:00:57.990Z,96625.97
2022-09-15T04:04:00.101Z,96626.19
2022-09-15T04:07:02.071Z,96620.66
2022-09-15T04:10:04.879Z,96619.84
2022-09-15T04:13:06.985Z,96619.41
2022-09-15T04:16:12.270Z,96617.91
2022-09-15T04:19:14.816Z,96630.97
2022-09-15T04:22:18.033Z,96620.50
2022-09-15T04:25:20.386Z,96636.47
2022-09-15T04:28:22.467Z,96636.47
2022-09-15T04:31:24.712Z,96645.63
2022-09-15T04:34:26.715Z,96639.00
2022-09-15T04:37:28.665Z,96633.25
2022-09-15T04:40:30.921Z,96646.06
2022-09-15T04:43:34.125Z,96648.91
2022-09-15T04:46:36.204Z,96638.44
2022-09-15T04:49:38.297Z,96636.81
2022-09-15T04:52:40.263Z,96627.34
2022-09-15T04:55:42.530Z,96620.38
2022-09-15T04:58:47.406Z,96608.25
2022-09-15T05:01:49.747Z,96616.41
2022-09-15T05:04:51.823Z,96619.25
2022-09-15T05:07:53.741Z,96621.91
2022-09-15T05:11:03.505Z,96632.19
2022-09-15T05:14:05.737Z,96626.69
2022-09-15T05:17:07.706Z,96630.19
2022-09-15T05:20:09.910Z,96639.47
2022-09-15T05:23:11.793Z,96648.25
2022-09-15T05:26:16.662Z,96661.38
2022-09-15T05:29:18.565Z,96666.00
2022-09-15T05:32:20.639Z,96665.81
2022-09-15T05:35:23.780Z,96672.13
2022-09-15T05:38:26.626Z,96669.09
2022-09-15T05:41:29.357Z,96669.31
2022-09-15T05:44:31.874Z,96667.09
2022-09-15T05:47:33.849Z,96662.69
2022-09-15T05:50:36.242Z,96653.63
2022-09-15T05:53:38.962Z,96656.66
2022-09-15T05:56:40.943Z,96654.28
2022-09-15T05:59:44.259Z,96669.50
2022-09-15T06:02:46.320Z,96679.63
2022-09-15T06:05:48.389Z,96672.28
2022-09-15T06:08:56.982Z,96675.03
2022-09-15T06:11:59.822Z,96680.25
2022-09-15T06:15:02.259Z,96684.78
2022-09-15T06:18:04.291Z,96674.03
2022-09-15T06:21:09.482Z,96683.56
2022-09-15T06:24:12.784Z,96684.84
2022-09-15T06:27:14.776Z,96693.56
2022-09-15T06:30:18.054Z,96697.38
2022-09-15T06:33:20.027Z,96693.22
2022-09-15T06:36:24.562Z,96703.84
2022-09-15T06:39:27.043Z,96718.91
2022-09-15T06:42:29.005Z,96725.53
2022-09-15T06:45:31.115Z,96728.81
2022-09-15T06:48:33.111Z,96724.09
2022-09-15T06:51:36.399Z,96729.25
2022-09-15T06:54:39.007Z,96735.88
2022-09-15T06:57:40.930Z,96742.28
2022-09-15T07:00:43.345Z,96751.03
2022-09-15T07:03:45.377Z,96742.84
2022-09-15T07:06:48.266Z,96747.16
2022-09-15T07:09:50.609Z,96733.53
2022-09-15T07:12:52.641Z,96720.22
2022-09-15T07:15:58.450Z,96721.25
2022-09-15T07:19:02.617Z,96725.94
2022-09-15T07:22:04.538Z,96717.06
2022-09-15T07:25:06.974Z,96712.47
2022-09-15T07:28:08.952Z,96711.59
2022-09-15T07:31:13.763Z,96708.16
2022-09-15T07:34:15.699Z,96720.56
2022-09-15T07:37:17.797Z,96711.72
2022-09-15T07:40:19.834Z,96721.78
2022-09-15T07:43:21.885Z,96721.03
2022-09-15T07:46:25.244Z,96720.00
2022-09-15T07:49:27.346Z,96715.28
2022-09-15T07:52:29.656Z,96718.75
2022-09-15T07:55:31.652Z,96712.00
2022-09-15T07:58:34.163Z,96728.03
2022-09-15T08:01:54.474Z,96734.22
2022-09-15T08:04:56.671Z,96735.03
2022-09-15T08:07:58.691Z,96737.34
2022-09-15T08:11:05.361Z,96745.38
2022-09-15T08:14:07.442Z,96751.34
2022-09-15T08:17:11.553Z,96757.06
2022-09-15T08:20:14.171Z,96755.22
2022-09-15T08:23:16.131Z,96744.94
2022-09-15T08:26:18.373Z,96743.50
2022-09-15T08:29:21.288Z,96735.47
2022-09-15T08:32:23.260Z,96735.88
2022-09-15T08:35:25.320Z,96736.13
2022-09-15T08:38:27.344Z,96727.69
2022-09-15T08:41:43.114Z,96721.38
2022-09-15T08:44:52.777Z,96716.22
2022-09-15T08:48:00.316Z,96718.69
2022-09-15T08:51:10.486Z,96725.25
2022-09-15T08:54:21.614Z,96719.13
2022-09-15T08:57:26.391Z,96724.94
2022-09-15T09:00:29.501Z,96722.25
2022-09-15T09:03:56.263Z,96720.59
2022-09-15T09:07:14.076Z,96721.22
2022-09-15T09:10:25.418Z,96715.88
2022-09-15T09:13:49.187Z,96710.28
2022-09-15T09:16:51.112Z,96715.88
2022-09-15T09:20:01.718Z,96705.38
2022-09-15T09:23:11.173Z,96698.16
2022-09-15T09:26:14.821Z,96701.44
2022-09-15T09:29:18.721Z,96709.69
2022-09-15T09:32:31.467Z,96710.72
2022-09-15T09:35:46.359Z,96698.16
2022-09-15T09:38:50.460Z,96706.38
2022-09-15T09:41:52.538Z,96685.34
2022-09-15T09:44:54.569Z,96680.41
2022-09-15T09:48:03.034Z,96658.38
2022-09-15T09:51:05.545Z,96656.91
2022-09-15T09:54:15.668Z,96645.75
2022-09-15T09:57:28.330Z,96648.06
2022-09-15T10:00:36.708Z,96659.59
2022-09-15T10:03:39.174Z,96656.31
2022-09-15T10:06:43.171Z,96666.00
2022-09-15T10:09:51.206Z,96660.84
2022-09-15T10:12:57.067Z,96664.97
2022-09-15T10:16:02.677Z,96654.47
2022-09-15T10:19:04.844Z,96664.97
2022-09-15T10:22:06.847Z,96668.47
2022-09-15T10:25:21.052Z,96660.22
2022-09-15T10:28:26.364Z,96669.28
2022-09-15T10:31:32.332Z,96664.97
2022-09-15T10:34:36.447Z,96659.59
2022-09-15T10:38:11.618Z,96667.66
2022-09-15T10:41:30.359Z,96647.84
2022-09-15T10:44:52.554Z,96659.38
2022-09-15T10:48:22.635Z,96663.94
2022-09-15T10:52:05.452Z,96664.94
2022-09-15T10:55:31.860Z,96657.94
2022-09-15T10:58:40.991Z,96660.81
2022-09-15T11:01:51.422Z,96662.91
2022-09-15T11:04:59.711Z,96662.47
2022-09-15T11:08:22.862Z,96651.97
2022-09-15T11:11:54.007Z,96649.09
2022-09-15T11:15:04.758Z,96649.09
2022-09-15T11:18:37.320Z,96654.25
2022-09-15T11:21:57.803Z,96648.03
2022-09-15T11:25:14.114Z,96645.97
2022-09-15T11:28:23.683Z,96642.47
2022-09-15T11:31:34.598Z,96648.63
2022-09-15T11:34:49.673Z,96640.63
2022-09-15T11:37:54.329Z,96629.91
2022-09-15T11:41:10.387Z,96630.75
2022-09-15T11:44:32.677Z,96634.00
2022-09-15T11:47:48.199Z,96639.75
2022-09-15T11:50:54.829Z,96650.84
2022-09-15T11:54:06.475Z,96649.00
2022-09-15T11:57:19.069Z,96652.63
2022-09-15T12:00:21.125Z,96651.53
2022-09-15T12:03:37.864Z,96655.66
2022-09-15T12:06:49.425Z,96653.56
2022-09-15T12:09:51.838Z,96650.06
2022-09-15T12:12:54.343Z,96647.53
2022-09-15T12:15:57.499Z,96637.81
2022-09-15T12:19:09.234Z,96637.19
2022-09-15T12:22:18.290Z,96633.91
2022-09-15T12:25:30.352Z,96624.25
2022-09-15T12:28:51.235Z,96626.50
2022-09-15T12:32:20.110Z,96616.44
2022-09-15T12:35:24.840Z,96605.34
2022-09-15T12:38:30.676Z,96599.84
2022-09-15T12:41:33.448Z,96602.59
2022-09-15T12:44:50.314Z,96590.69
2022-09-15T12:47:57.684Z,96581.47
2022-09-15T12:51:06.043Z,96573.66
2022-09-15T12:54:09.531Z,96571.44
2022-09-15T12:57:32.421Z,96567.72
2022-09-15T13:00:45.499Z,96558.91
2022-09-15T13:03:54.075Z,96551.69
2022-09-15T13:07:32.808Z,96544.91
2022-09-15T13:10:39.667Z,96544.91
2022-09-15T13:13:54.652Z,96547.78
2022-09-15T13:17:06.211Z,96534.00
2022-09-15T13:20:15.697Z,96534.19
2022-09-15T13:23:23.549Z,96530.69
2022-09-15T13:26:27.599Z,96535.81
2022-09-15T13:29:33.078Z,96531.69
2022-09-15T13:32:57.316Z,96531.25
2022-09-15T13:36:25.029Z,96534.78
2022-09-15T13:39:31.158Z,96540.75
2022-09-15T13:42:52.452Z,96534.38
2022-09-15T13:46:12.777Z,96524.09
2022-09-15T13:49:35.950Z,96520.00
2022-09-15T13:52:50.015Z,96523.28
2022-09-15T13:55:55.821Z,96517.94
2022-09-15T13:59:08.775Z,96518.13
2022-09-15T14:02:15.102Z,96514.25
2022-09-15T14:05:19.266Z,96517.78
2022-09-15T14:08:27.124Z,96513.81
2022-09-15T14:11:32.727Z,96518.78
2022-09-15T14:14:45.316Z,96513.97
2022-09-15T14:17:47.314Z,96512.09
2022-09-15T14:21:03.552Z,96523.66
2022-09-15T14:24:21.642Z,96528.00
2022-09-15T14:27:33.934Z,96528.69
2022-09-15T14:30:36.514Z,96526.69
2022-09-15T14:33:41.087Z,96534.13
2022-09-15T14:36:43.953Z,96533.97
2022-09-15T14:39:56.767Z,96536.25
2022-09-15T14:42:58.904Z,96522.75
2022-09-15T14:46:11.725Z,96528.56
2022-09-15T14:49:16.816Z,96532.72
2022-09-15T14:52:30.845Z,96533.31
2022-09-15T14:55:51.074Z,96527.47
2022-09-15T14:58:56.742Z,96535.16
2022-09-15T15:02:24.105Z,96542.84
2022-09-15T15:05:36.015Z,96554.34
2022-09-15T15:08:50.710Z,96566.22
2022-09-15T15:11:57.002Z,96568.69
2022-09-15T15:15:00.527Z,96579.84
2022-09-15T15:18:06.534Z,96586.47
2022-09-15T15:21:35.148Z,96593.47
2022-09-15T15:24:41.295Z,96590.00
2022-09-15T15:27:43.774Z,96589.19
2022-09-15T15:30:47.220Z,96582.41
2022-09-15T15:33:59.561Z,96585.91
2022-09-15T15:37:13.924Z,96577.66
2022-09-15T15:40:23.348Z,96561.38
2022-09-15T15:43:26.693Z,96570.03
2022-09-15T15:47:24.525Z,96575.34
2022-09-15T15:50:28.427Z,96593.66
2022-09-15T15:53:30.609Z,96597.75
2022-09-15T15:56:35.865Z,96590.69
2022-09-15T15:59:39.830Z,96593.38
2022-09-15T17:02:14.359Z,96657.72
2022-09-15T17:05:32.950Z,96669.59
2022-09-15T17:08:34.922Z,96671.19
2022-09-15T17:11:37.356Z,96682.25
2022-09-15T17:14:39.330Z,96676.16
2022-09-15T17:17:42.471Z,96679.31
2022-09-15T17:20:46.647Z,96669.34
2022-09-15T17:23:50.271Z,96674.16
2022-09-15T17:26:52.597Z,96661.56
2022-09-15T17:29:54.675Z,96666.72
2022-09-15T17:33:13.747Z,96668.16
2022-09-15T17:36:16.336Z,96662.19
2022-09-15T17:39:18.395Z,96686.56
2022-09-15T17:42:20.425Z,96684.91
2022-09-15T17:45:25.956Z,96682.63
2022-09-15T17:48:27.853Z,96662.78
2022-09-15T17:51:29.853Z,96667.34
2022-09-15T17:54:32.058Z,96667.63
2022-09-15T17:57:34.293Z,96656.78
2022-09-15T18:00:38.711Z,96646.28
2022-09-15T18:03:43.677Z,96647.66
2022-09-15T18:06:46.399Z,96646.00
2022-09-15T18:09:48.755Z,96637.19
2022-09-15T18:12:55.002Z,96631.56
2022-09-15T18:15:58.845Z,96644.06
2022-09-15T18:19:01.251Z,96643.81
2022-09-15T18:22:04.224Z,96647.34
2022-09-15T18:25:06.951Z,96644.38
2022-09-15T18:28:10.072Z,96640.13
2022-09-15T18:31:17.350Z,96635.06
2022-09-15T18:34:19.731Z,96632.50
2022-09-15T18:37:22.005Z,96641.63
2022-09-15T18:40:25.857Z,96644.53
2022-09-15T18:43:28.679Z,96649.22
2022-09-15T18:46:30.935Z,96644.00
2022-09-15T18:49:33.258Z,96633.81
2022-09-15T18:52:37.520Z,96628.19
2022-09-15T18:55:44.079Z,96632.41
2022-09-15T18:58:46.342Z,96633.06
2022-09-15T19:01:54.553Z,96641.88
2022-09-15T19:04:56.953Z,96655.03
2022-09-15T19:07:59.060Z,96654.56
2022-09-15T19:11:01.474Z,96664.28
2022-09-15T19:17:06.553Z,96694.41
2022-09-15T19:20:10.566Z,96699.16
2022-09-15T19:23:12.649Z,96714.22
2022-09-15T19:26:17.574Z,96708.63
2022-09-15T19:29:19.704Z,96715.50
2022-09-15T19:32:22.568Z,96708.66
2022-09-15T19:35:25.275Z,96707.63
2022-09-15T19:38:28.606Z,96723.22
2022-09-15T19:41:31.816Z,96715.16
2022-09-15T19:44:34.222Z,96717.44
2022-09-15T19:47:36.484Z,96730.09
2022-09-15T19:50:38.849Z,96737.25
2022-09-15T19:53:42.597Z,96724.94
2022-09-15T19:56:44.728Z,96724.94
2022-09-15T19:59:47.304Z,96735.09
2022-09-15T20:02:49.292Z,96740.78
2022-09-15T20:09:11.629Z,96748.13
2022-09-15T20:12:13.616Z,96757.50
2022-09-15T20:15:15.568Z,96758.22
2022-09-15T20:18:18.518Z,96759.78
2022-09-15T20:21:39.092Z,96755.81
2022-09-15T20:24:47.811Z,96759.84
2022-09-15T20:27:52.692Z,96766.06
2022-09-15T20:31:09.975Z,96761.94
2022-09-15T20:34:12.324Z,96768.25
2022-09-15T20:37:14.288Z,96760.28
2022-09-15T20:40:17.032Z,96781.41
2022-09-15T20:43:19.021Z,96776.88
2022-09-15T20:46:23.150Z,96789.00
2022-09-15T20:49:25.158Z,96793.31
2022-09-15T20:52:33.614Z,96792.16
2022-09-15T20:55:39.467Z,96795.47
2022-09-15T20:58:41.976Z,96799.97
2022-09-15T21:01:47.183Z,96804.81
2022-09-15T21:04:49.206Z,96810.47
2022-09-15T21:07:52.207Z,96825.44
2022-09-15T21:10:55.325Z,96833.09
2022-09-15T21:13:58.019Z,96850.88
2022-09-15T21:17:00.262Z,96860.09
2022-09-15T21:20:02.775Z,96867.84
2022-09-15T21:23:04.716Z,96899.03
2022-09-15T21:26:09.578Z,96888.78
2022-09-15T21:29:11.534Z,96892.34
2022-09-15T21:32:13.494Z,96907.00
2022-09-15T21:35:15.496Z,96907.69
2022-09-15T21:38:17.479Z,96930.81
2022-09-15T21:41:21.660Z,96918.50
2022-09-15T21:44:23.596Z,96919.22
2022-09-15T21:47:25.520Z,96918.22
2022-09-15T21:50:27.685Z,96918.72
2022-09-15T21:53:29.820Z,96913.75
2022-09-15T21:56:31.797Z,96899.84
2022-09-15T21:59:33.710Z,96904.00
2022-09-15T22:02:36.222Z,96909.28
2022-09-15T22:05:42.248Z,96901.47
2022-09-15T22:08:45.239Z,96898.97
2022-09-15T22:11:50.117Z,96921.72
2022-09-15T22:14:52.437Z,96921.88
2022-09-15T22:17:54.454Z,96919.72
2022-09-15T22:21:18.741Z,96931.66
2022-09-15T22:24:20.751Z,96930.16
2022-09-15T22:27:22.741Z,96939.44
2022-09-15T22:30:25.024Z,96943.56
2022-09-15T22:33:27.163Z,96953.34
2022-09-15T22:36:30.623Z,96954.38
2022-09-15T22:39:57.234Z,96944.75
2022-09-15T22:42:54.981Z,96957.03
2022-09-15T22:45:56.982Z,96956.00
2022-09-15T22:48:59.010Z,96976.09
2022-09-15T22:52:01.098Z,96976.75
2022-09-15T22:55:03.412Z,96986.91
2022-09-15T22:58:05.643Z,96981.41
2022-09-15T23:01:13.963Z,96994.50
2022-09-15T23:04:16.119Z,96999.81
2022-09-15T23:07:18.032Z,96991.53
2022-09-15T23:10:20.077Z,97007.47
2022-09-15T23:13:22.134Z,97014.91
2022-09-15T23:16:25.572Z,97024.22
2022-09-15T23:19:27.596Z,97020.84
2022-09-15T23:22:29.564Z,97021.47
2022-09-15T23:25:32.139Z,97021.47
2022-09-15T23:28:34.900Z,97014.00
2022-09-15T23:31:36.884Z,97015.25
2022-09-15T23:34:39.045Z,97021.03
2022-09-15T23:37:41.020Z,97026.00
2022-09-15T23:40:43.785Z,97014.53
2022-09-15T23:43:46.418Z,97028.09
2022-09-15T23:46:48.467Z,97039.81
2022-09-15T23:49:50.435Z,97040.47
2022-09-15T23:52:52.465Z,97026.56
2022-09-15T23:55:54.459Z,97027.78
2022-09-15T23:58:56.418Z,97030.91
